sensor_id;sensor_type;location;lat;lon;timestamp;P1;durP1;ratioP1;P2;durP2;ratioP2
70433;SDS011;57876;47.792;12.960;2024-02-23T00:01:41;4.28;;;0.80;;
70433;SDS011;57876;47.792;12.960;2024-02-23T00:04:06;3.77;;;1.00;;
70433;SDS011;57876;47.792;12.960;2024-02-23T00:06:31;3.97;;;0.90;;
70433;SDS011;57876;47.792;12.960;2024-02-23T00:08:56;4.00;;;0.90;;
70433;SDS011;57876;47.792;12.960;2024-02-23T00:11:21;3.97;;;0.80;;
70433;SDS011;57876;47.792;12.960;2024-02-23T00:13:45;3.67;;;0.90;;
70433;SDS011;57876;47.792;12.960;2024-02-23T00:16:10;3.70;;;1.07;;
70433;SDS011;57876;47.792;12.960;2024-02-23T00:18:35;3.65;;;0.82;;
70433;SDS011;57876;47.792;12.960;2024-02-23T00:20:59;3.73;;;0.70;;
70433;SDS011;57876;47.792;12.960;2024-02-23T00:23:24;3.70;;;0.73;;
70433;SDS011;57876;47.792;12.960;2024-02-23T00:25:48;3.60;;;0.77;;
70433;SDS011;57876;47.792;12.960;2024-02-23T00:28:12;4.00;;;0.97;;
70433;SDS011;57876;47.792;12.960;2024-02-23T00:30:40;4.00;;;1.00;;
70433;SDS011;57876;47.792;12.960;2024-02-23T00:33:04;3.83;;;0.90;;
70433;SDS011;57876;47.792;12.960;2024-02-23T00:35:29;3.93;;;0.80;;
70433;SDS011;57876;47.792;12.960;2024-02-23T00:37:53;3.60;;;0.80;;
70433;SDS011;57876;47.792;12.960;2024-02-23T00:40:17;3.60;;;0.80;;
70433;SDS011;57876;47.792;12.960;2024-02-23T00:42:42;4.13;;;0.90;;
70433;SDS011;57876;47.792;12.960;2024-02-23T00:45:06;4.00;;;0.90;;
70433;SDS011;57876;47.792;12.960;2024-02-23T00:47:31;3.58;;;0.75;;
70433;SDS011;57876;47.792;12.960;2024-02-23T00:49:56;4.03;;;1.00;;
70433;SDS011;57876;47.792;12.960;2024-02-23T00:52:20;3.73;;;0.80;;
70433;SDS011;57876;47.792;12.960;2024-02-23T00:54:44;3.80;;;0.88;;
70433;SDS011;57876;47.792;12.960;2024-02-23T00:57:09;4.10;;;1.00;;
70433;SDS011;57876;47.792;12.960;2024-02-23T00:59:33;4.40;;;1.00;;
70433;SDS011;57876;47.792;12.960;2024-02-23T01:01:58;3.80;;;0.93;;
70433;SDS011;57876;47.792;12.960;2024-02-23T01:04:22;3.63;;;0.80;;
70433;SDS011;57876;47.792;12.960;2024-02-23T01:06:46;3.22;;;0.70;;
70433;SDS011;57876;47.792;12.960;2024-02-23T01:09:11;3.93;;;0.90;;
70433;SDS011;57876;47.792;12.960;2024-02-23T01:11:35;3.97;;;0.87;;
70433;SDS011;57876;47.792;12.960;2024-02-23T01:13:59;3.90;;;0.90;;
70433;SDS011;57876;47.792;12.960;2024-02-23T01:16:24;3.53;;;0.80;;
70433;SDS011;57876;47.792;12.960;2024-02-23T01:18:48;4.23;;;1.00;;
70433;SDS011;57876;47.792;12.960;2024-02-23T01:21:13;3.80;;;0.80;;
70433;SDS011;57876;47.792;12.960;2024-02-23T01:23:38;3.63;;;0.80;;
70433;SDS011;57876;47.792;12.960;2024-02-23T01:26:02;4.67;;;1.00;;
70433;SDS011;57876;47.792;12.960;2024-02-23T01:28:26;3.50;;;0.80;;
70433;SDS011;57876;47.792;12.960;2024-02-23T01:30:51;4.30;;;1.10;;
70433;SDS011;57876;47.792;12.960;2024-02-23T01:33:16;3.95;;;1.00;;
70433;SDS011;57876;47.792;12.960;2024-02-23T01:35:41;4.17;;;1.10;;
70433;SDS011;57876;47.792;12.960;2024-02-23T01:38:05;3.90;;;1.00;;
70433;SDS011;57876;47.792;12.960;2024-02-23T01:40:30;3.80;;;0.80;;
70433;SDS011;57876;47.792;12.960;2024-02-23T01:43:01;3.50;;;0.80;;
70433;SDS011;57876;47.792;12.960;2024-02-23T01:45:29;4.32;;;1.00;;
70433;SDS011;57876;47.792;12.960;2024-02-23T01:47:55;3.50;;;0.90;;
70433;SDS011;57876;47.792;12.960;2024-02-23T01:50:19;3.87;;;0.80;;
70433;SDS011;57876;47.792;12.960;2024-02-23T01:52:44;3.60;;;0.90;;
70433;SDS011;57876;47.792;12.960;2024-02-23T01:55:08;3.70;;;1.00;;
70433;SDS011;57876;47.792;12.960;2024-02-23T01:57:33;3.93;;;0.90;;
70433;SDS011;57876;47.792;12.960;2024-02-23T01:59:58;4.45;;;0.90;;
70433;SDS011;57876;47.792;12.960;2024-02-23T02:02:22;4.00;;;0.97;;
70433;SDS011;57876;47.792;12.960;2024-02-23T02:04:47;3.35;;;0.70;;
70433;SDS011;57876;47.792;12.960;2024-02-23T02:07:12;3.60;;;0.73;;
70433;SDS011;57876;47.792;12.960;2024-02-23T02:09:36;3.72;;;0.90;;
70433;SDS011;57876;47.792;12.960;2024-02-23T02:12:01;4.00;;;0.80;;
70433;SDS011;57876;47.792;12.960;2024-02-23T02:14:25;4.10;;;1.00;;
70433;SDS011;57876;47.792;12.960;2024-02-23T02:16:52;3.80;;;0.80;;
70433;SDS011;57876;47.792;12.960;2024-02-23T02:19:16;4.10;;;0.90;;
70433;SDS011;57876;47.792;12.960;2024-02-23T02:21:41;3.50;;;0.80;;
70433;SDS011;57876;47.792;12.960;2024-02-23T02:24:06;3.47;;;0.80;;
70433;SDS011;57876;47.792;12.960;2024-02-23T02:26:31;3.75;;;0.85;;
70433;SDS011;57876;47.792;12.960;2024-02-23T02:28:55;4.00;;;0.90;;
70433;SDS011;57876;47.792;12.960;2024-02-23T02:31:19;3.85;;;0.82;;
70433;SDS011;57876;47.792;12.960;2024-02-23T02:33:44;3.83;;;0.90;;
70433;SDS011;57876;47.792;12.960;2024-02-23T02:36:08;3.40;;;0.70;;
70433;SDS011;57876;47.792;12.960;2024-02-23T02:38:33;3.33;;;0.80;;
70433;SDS011;57876;47.792;12.960;2024-02-23T02:40:57;3.50;;;0.88;;
70433;SDS011;57876;47.792;12.960;2024-02-23T02:43:24;3.70;;;0.70;;
70433;SDS011;57876;47.792;12.960;2024-02-23T02:45:48;3.57;;;0.90;;
70433;SDS011;57876;47.792;12.960;2024-02-23T02:48:13;2.97;;;0.70;;
70433;SDS011;57876;47.792;12.960;2024-02-23T02:50:37;3.27;;;0.70;;
70433;SDS011;57876;47.792;12.960;2024-02-23T02:53:01;3.90;;;0.90;;
70433;SDS011;57876;47.792;12.960;2024-02-23T02:55:26;3.90;;;0.80;;
70433;SDS011;57876;47.792;12.960;2024-02-23T02:57:50;3.90;;;0.88;;
70433;SDS011;57876;47.792;12.960;2024-02-23T03:00:15;4.20;;;0.80;;
70433;SDS011;57876;47.792;12.960;2024-02-23T03:02:39;3.40;;;0.73;;
70433;SDS011;57876;47.792;12.960;2024-02-23T03:05:04;3.23;;;0.63;;
70433;SDS011;57876;47.792;12.960;2024-02-23T03:07:29;3.55;;;0.80;;
70433;SDS011;57876;47.792;12.960;2024-02-23T03:09:53;4.00;;;0.80;;
70433;SDS011;57876;47.792;12.960;2024-02-23T03:12:18;4.13;;;0.77;;
70433;SDS011;57876;47.792;12.960;2024-02-23T03:14:43;3.40;;;0.70;;
70433;SDS011;57876;47.792;12.960;2024-02-23T03:17:08;4.05;;;1.10;;
70433;SDS011;57876;47.792;12.960;2024-02-23T03:19:33;3.40;;;0.80;;
70433;SDS011;57876;47.792;12.960;2024-02-23T03:21:57;3.00;;;0.70;;
70433;SDS011;57876;47.792;12.960;2024-02-23T03:24:22;3.58;;;0.80;;
70433;SDS011;57876;47.792;12.960;2024-02-23T03:26:46;3.57;;;0.80;;
70433;SDS011;57876;47.792;12.960;2024-02-23T03:29:11;4.30;;;0.90;;
70433;SDS011;57876;47.792;12.960;2024-02-23T03:31:35;3.65;;;0.73;;
70433;SDS011;57876;47.792;12.960;2024-02-23T03:34:00;3.40;;;0.77;;
70433;SDS011;57876;47.792;12.960;2024-02-23T03:36:24;3.13;;;0.70;;
70433;SDS011;57876;47.792;12.960;2024-02-23T03:38:48;3.50;;;0.70;;
70433;SDS011;57876;47.792;12.960;2024-02-23T03:41:13;3.77;;;0.87;;
70433;SDS011;57876;47.792;12.960;2024-02-23T03:43:37;3.53;;;0.80;;
70433;SDS011;57876;47.792;12.960;2024-02-23T03:46:02;3.47;;;0.80;;
70433;SDS011;57876;47.792;12.960;2024-02-23T03:48:26;3.60;;;0.90;;
70433;SDS011;57876;47.792;12.960;2024-02-23T03:50:51;3.53;;;0.80;;
70433;SDS011;57876;47.792;12.960;2024-02-23T03:53:15;3.53;;;0.83;;
70433;SDS011;57876;47.792;12.960;2024-02-23T03:55:40;3.70;;;0.70;;
70433;SDS011;57876;47.792;12.960;2024-02-23T03:58:04;3.67;;;0.80;;
70433;SDS011;57876;47.792;12.960;2024-02-23T04:00:31;3.70;;;0.90;;
70433;SDS011;57876;47.792;12.960;2024-02-23T04:02:55;3.63;;;0.80;;
70433;SDS011;57876;47.792;12.960;2024-02-23T04:05:20;3.87;;;0.90;;
70433;SDS011;57876;47.792;12.960;2024-02-23T04:07:44;3.33;;;0.60;;
70433;SDS011;57876;47.792;12.960;2024-02-23T04:10:08;3.47;;;0.70;;
70433;SDS011;57876;47.792;12.960;2024-02-23T04:12:33;3.27;;;0.60;;
70433;SDS011;57876;47.792;12.960;2024-02-23T04:14:57;3.50;;;0.70;;
70433;SDS011;57876;47.792;12.960;2024-02-23T04:17:22;3.60;;;0.70;;
70433;SDS011;57876;47.792;12.960;2024-02-23T04:19:46;3.37;;;0.70;;
70433;SDS011;57876;47.792;12.960;2024-02-23T04:22:10;3.23;;;0.70;;
70433;SDS011;57876;47.792;12.960;2024-02-23T04:24:38;3.90;;;0.80;;
70433;SDS011;57876;47.792;12.960;2024-02-23T04:27:07;3.05;;;0.60;;
70433;SDS011;57876;47.792;12.960;2024-02-23T04:29:32;3.17;;;0.52;;
70433;SDS011;57876;47.792;12.960;2024-02-23T04:31:59;3.53;;;0.77;;
70433;SDS011;57876;47.792;12.960;2024-02-23T04:34:24;3.53;;;0.80;;
70433;SDS011;57876;47.792;12.960;2024-02-23T04:36:49;3.38;;;0.63;;
70433;SDS011;57876;47.792;12.960;2024-02-23T04:39:13;3.03;;;0.50;;
70433;SDS011;57876;47.792;12.960;2024-02-23T04:41:37;3.20;;;0.70;;
70433;SDS011;57876;47.792;12.960;2024-02-23T04:44:02;3.50;;;0.80;;
70433;SDS011;57876;47.792;12.960;2024-02-23T04:46:26;3.70;;;0.90;;
70433;SDS011;57876;47.792;12.960;2024-02-23T04:48:51;3.77;;;0.70;;
70433;SDS011;57876;47.792;12.960;2024-02-23T04:51:15;3.80;;;0.90;;
70433;SDS011;57876;47.792;12.960;2024-02-23T04:53:40;3.43;;;0.70;;
70433;SDS011;57876;47.792;12.960;2024-02-23T04:56:04;3.20;;;0.60;;
70433;SDS011;57876;47.792;12.960;2024-02-23T04:58:29;3.30;;;0.80;;
70433;SDS011;57876;47.792;12.960;2024-02-23T05:00:53;3.42;;;0.73;;
70433;SDS011;57876;47.792;12.960;2024-02-23T05:03:19;3.63;;;0.70;;
70433;SDS011;57876;47.792;12.960;2024-02-23T05:05:43;3.63;;;0.80;;
70433;SDS011;57876;47.792;12.960;2024-02-23T05:08:08;3.63;;;0.80;;
70433;SDS011;57876;47.792;12.960;2024-02-23T05:10:33;3.03;;;0.60;;
70433;SDS011;57876;47.792;12.960;2024-02-23T05:12:57;3.30;;;0.80;;
70433;SDS011;57876;47.792;12.960;2024-02-23T05:15:22;3.70;;;0.77;;
70433;SDS011;57876;47.792;12.960;2024-02-23T05:17:46;3.73;;;0.70;;
70433;SDS011;57876;47.792;12.960;2024-02-23T05:20:11;3.03;;;0.60;;
70433;SDS011;57876;47.792;12.960;2024-02-23T05:22:36;3.28;;;0.70;;
70433;SDS011;57876;47.792;12.960;2024-02-23T05:25:01;2.80;;;0.60;;
70433;SDS011;57876;47.792;12.960;2024-02-23T05:27:25;3.40;;;0.70;;
70433;SDS011;57876;47.792;12.960;2024-02-23T05:29:51;3.67;;;0.90;;
70433;SDS011;57876;47.792;12.960;2024-02-23T05:32:15;3.10;;;0.60;;
70433;SDS011;57876;47.792;12.960;2024-02-23T05:34:41;3.60;;;0.80;;
70433;SDS011;57876;47.792;12.960;2024-02-23T05:37:05;3.13;;;0.70;;
70433;SDS011;57876;47.792;12.960;2024-02-23T05:39:30;4.07;;;0.70;;
70433;SDS011;57876;47.792;12.960;2024-02-23T05:41:55;3.60;;;0.80;;
70433;SDS011;57876;47.792;12.960;2024-02-23T05:44:19;3.67;;;0.77;;
70433;SDS011;57876;47.792;12.960;2024-02-23T05:46:44;3.15;;;0.73;;
70433;SDS011;57876;47.792;12.960;2024-02-23T05:49:08;3.60;;;0.80;;
70433;SDS011;57876;47.792;12.960;2024-02-23T05:51:33;3.40;;;0.77;;
70433;SDS011;57876;47.792;12.960;2024-02-23T05:53:59;3.13;;;0.68;;
70433;SDS011;57876;47.792;12.960;2024-02-23T05:56:23;2.97;;;0.70;;
70433;SDS011;57876;47.792;12.960;2024-02-23T05:58:48;3.17;;;0.85;;
70433;SDS011;57876;47.792;12.960;2024-02-23T06:01:12;3.60;;;0.80;;
70433;SDS011;57876;47.792;12.960;2024-02-23T06:03:37;2.92;;;0.60;;
70433;SDS011;57876;47.792;12.960;2024-02-23T06:06:01;3.13;;;0.60;;
70433;SDS011;57876;47.792;12.960;2024-02-23T06:08:26;2.80;;;0.60;;
70433;SDS011;57876;47.792;12.960;2024-02-23T06:10:50;2.83;;;0.50;;
70433;SDS011;57876;47.792;12.960;2024-02-23T06:13:15;3.38;;;0.80;;
70433;SDS011;57876;47.792;12.960;2024-02-23T06:15:39;3.40;;;0.70;;
70433;SDS011;57876;47.792;12.960;2024-02-23T06:18:04;3.25;;;0.63;;
70433;SDS011;57876;47.792;12.960;2024-02-23T06:20:29;2.97;;;0.70;;
70433;SDS011;57876;47.792;12.960;2024-02-23T06:22:54;3.67;;;0.70;;
70433;SDS011;57876;47.792;12.960;2024-02-23T06:25:18;3.13;;;0.70;;
70433;SDS011;57876;47.792;12.960;2024-02-23T06:27:43;3.23;;;0.60;;
70433;SDS011;57876;47.792;12.960;2024-02-23T06:30:07;3.67;;;0.70;;
70433;SDS011;57876;47.792;12.960;2024-02-23T06:32:32;3.03;;;0.50;;
70433;SDS011;57876;47.792;12.960;2024-02-23T06:34:57;3.03;;;0.70;;
70433;SDS011;57876;47.792;12.960;2024-02-23T06:37:21;3.10;;;0.60;;
70433;SDS011;57876;47.792;12.960;2024-02-23T06:39:45;3.43;;;0.80;;
70433;SDS011;57876;47.792;12.960;2024-02-23T06:42:15;2.88;;;0.60;;
70433;SDS011;57876;47.792;12.960;2024-02-23T06:44:39;3.60;;;0.67;;
70433;SDS011;57876;47.792;12.960;2024-02-23T06:47:04;2.90;;;0.60;;
70433;SDS011;57876;47.792;12.960;2024-02-23T06:49:28;3.17;;;0.68;;
70433;SDS011;57876;47.792;12.960;2024-02-23T06:51:53;3.30;;;0.70;;
70433;SDS011;57876;47.792;12.960;2024-02-23T06:54:17;3.23;;;0.70;;
70433;SDS011;57876;47.792;12.960;2024-02-23T06:56:42;3.07;;;0.57;;
70433;SDS011;57876;47.792;12.960;2024-02-23T06:59:06;3.20;;;0.60;;
70433;SDS011;57876;47.792;12.960;2024-02-23T07:01:30;2.77;;;0.57;;
70433;SDS011;57876;47.792;12.960;2024-02-23T07:03:55;3.13;;;0.60;;
70433;SDS011;57876;47.792;12.960;2024-02-23T07:06:20;3.15;;;0.60;;
70433;SDS011;57876;47.792;12.960;2024-02-23T07:08:44;3.40;;;0.80;;
70433;SDS011;57876;47.792;12.960;2024-02-23T07:11:09;3.20;;;0.63;;
70433;SDS011;57876;47.792;12.960;2024-02-23T07:13:34;3.70;;;0.73;;
70433;SDS011;57876;47.792;12.960;2024-02-23T07:16:00;3.45;;;0.70;;
70433;SDS011;57876;47.792;12.960;2024-02-23T07:18:24;3.33;;;0.65;;
70433;SDS011;57876;47.792;12.960;2024-02-23T07:20:49;2.97;;;0.67;;
70433;SDS011;57876;47.792;12.960;2024-02-23T07:23:14;2.88;;;0.60;;
70433;SDS011;57876;47.792;12.960;2024-02-23T07:25:43;3.50;;;0.80;;
70433;SDS011;57876;47.792;12.960;2024-02-23T07:28:07;2.90;;;0.60;;
70433;SDS011;57876;47.792;12.960;2024-02-23T07:30:32;2.97;;;0.60;;
70433;SDS011;57876;47.792;12.960;2024-02-23T07:33:02;2.33;;;0.40;;
70433;SDS011;57876;47.792;12.960;2024-02-23T07:35:28;3.40;;;0.60;;
70433;SDS011;57876;47.792;12.960;2024-02-23T07:37:52;3.40;;;0.70;;
70433;SDS011;57876;47.792;12.960;2024-02-23T07:40:17;3.42;;;0.68;;
70433;SDS011;57876;47.792;12.960;2024-02-23T07:42:41;3.30;;;0.53;;
70433;SDS011;57876;47.792;12.960;2024-02-23T07:45:06;3.40;;;0.73;;
70433;SDS011;57876;47.792;12.960;2024-02-23T07:47:31;3.05;;;0.60;;
70433;SDS011;57876;47.792;12.960;2024-02-23T07:49:56;3.10;;;0.70;;
70433;SDS011;57876;47.792;12.960;2024-02-23T07:52:21;2.73;;;0.60;;
70433;SDS011;57876;47.792;12.960;2024-02-23T07:54:48;3.28;;;0.70;;
70433;SDS011;57876;47.792;12.960;2024-02-23T07:57:12;2.77;;;0.60;;
70433;SDS011;57876;47.792;12.960;2024-02-23T07:59:37;2.70;;;0.60;;
70433;SDS011;57876;47.792;12.960;2024-02-23T08:02:02;3.17;;;0.60;;
70433;SDS011;57876;47.792;12.960;2024-02-23T08:04:26;2.67;;;0.50;;
70433;SDS011;57876;47.792;12.960;2024-02-23T08:06:51;3.13;;;0.70;;
70433;SDS011;57876;47.792;12.960;2024-02-23T08:09:15;3.40;;;0.60;;
70433;SDS011;57876;47.792;12.960;2024-02-23T08:11:40;3.42;;;0.80;;
70433;SDS011;57876;47.792;12.960;2024-02-23T08:14:05;3.30;;;0.60;;
70433;SDS011;57876;47.792;12.960;2024-02-23T08:16:30;3.00;;;0.60;;
70433;SDS011;57876;47.792;12.960;2024-02-23T08:18:54;2.83;;;0.57;;
70433;SDS011;57876;47.792;12.960;2024-02-23T08:21:19;3.30;;;0.70;;
70433;SDS011;57876;47.792;12.960;2024-02-23T08:23:43;2.77;;;0.57;;
70433;SDS011;57876;47.792;12.960;2024-02-23T08:26:08;2.77;;;0.53;;
70433;SDS011;57876;47.792;12.960;2024-02-23T08:28:34;2.85;;;0.60;;
70433;SDS011;57876;47.792;12.960;2024-02-23T08:30:58;2.80;;;0.50;;
70433;SDS011;57876;47.792;12.960;2024-02-23T08:33:22;4.00;;;0.70;;
70433;SDS011;57876;47.792;12.960;2024-02-23T08:35:47;2.58;;;0.50;;
70433;SDS011;57876;47.792;12.960;2024-02-23T08:38:12;3.45;;;0.75;;
70433;SDS011;57876;47.792;12.960;2024-02-23T08:40:37;3.00;;;0.70;;
70433;SDS011;57876;47.792;12.960;2024-02-23T08:43:03;3.17;;;0.60;;
70433;SDS011;57876;47.792;12.960;2024-02-23T08:45:28;2.90;;;0.60;;
70433;SDS011;57876;47.792;12.960;2024-02-23T08:47:52;4.70;;;0.60;;
70433;SDS011;57876;47.792;12.960;2024-02-23T08:50:19;3.10;;;0.60;;
70433;SDS011;57876;47.792;12.960;2024-02-23T08:52:44;2.67;;;0.50;;
70433;SDS011;57876;47.792;12.960;2024-02-23T08:55:09;3.03;;;0.60;;
70433;SDS011;57876;47.792;12.960;2024-02-23T08:57:33;2.53;;;0.50;;
70433;SDS011;57876;47.792;12.960;2024-02-23T08:59:58;3.10;;;0.63;;
70433;SDS011;57876;47.792;12.960;2024-02-23T09:02:23;2.90;;;0.60;;
70433;SDS011;57876;47.792;12.960;2024-02-23T09:04:48;3.05;;;0.60;;
70433;SDS011;57876;47.792;12.960;2024-02-23T09:07:12;3.07;;;0.70;;
70433;SDS011;57876;47.792;12.960;2024-02-23T09:09:37;3.50;;;0.63;;
70433;SDS011;57876;47.792;12.960;2024-02-23T09:12:02;2.40;;;0.40;;
70433;SDS011;57876;47.792;12.960;2024-02-23T09:14:27;2.67;;;0.60;;
70433;SDS011;57876;47.792;12.960;2024-02-23T09:16:52;3.00;;;0.60;;
70433;SDS011;57876;47.792;12.960;2024-02-23T09:19:17;3.10;;;0.60;;
70433;SDS011;57876;47.792;12.960;2024-02-23T09:21:44;2.22;;;0.50;;
70433;SDS011;57876;47.792;12.960;2024-02-23T09:24:09;2.80;;;0.50;;
70433;SDS011;57876;47.792;12.960;2024-02-23T09:26:33;3.40;;;0.70;;
70433;SDS011;57876;47.792;12.960;2024-02-23T09:28:58;3.13;;;0.60;;
70433;SDS011;57876;47.792;12.960;2024-02-23T09:31:22;2.93;;;0.57;;
70433;SDS011;57876;47.792;12.960;2024-02-23T09:33:47;2.90;;;0.50;;
70433;SDS011;57876;47.792;12.960;2024-02-23T09:36:15;3.08;;;0.50;;
70433;SDS011;57876;47.792;12.960;2024-02-23T09:38:39;3.33;;;0.70;;
70433;SDS011;57876;47.792;12.960;2024-02-23T09:41:03;2.67;;;0.50;;
70433;SDS011;57876;47.792;12.960;2024-02-23T09:43:28;3.00;;;0.60;;
70433;SDS011;57876;47.792;12.960;2024-02-23T09:45:56;2.60;;;0.50;;
70433;SDS011;57876;47.792;12.960;2024-02-23T09:48:21;3.75;;;0.70;;
70433;SDS011;57876;47.792;12.960;2024-02-23T09:50:47;2.28;;;0.40;;
70433;SDS011;57876;47.792;12.960;2024-02-23T09:53:13;3.33;;;0.60;;
70433;SDS011;57876;47.792;12.960;2024-02-23T09:55:38;2.57;;;0.50;;
70433;SDS011;57876;47.792;12.960;2024-02-23T09:58:03;3.17;;;0.70;;
70433;SDS011;57876;47.792;12.960;2024-02-23T10:00:28;2.20;;;0.40;;
70433;SDS011;57876;47.792;12.960;2024-02-23T10:02:53;3.13;;;0.60;;
70433;SDS011;57876;47.792;12.960;2024-02-23T10:05:19;2.38;;;0.40;;
70433;SDS011;57876;47.792;12.960;2024-02-23T10:07:43;2.60;;;0.50;;
70433;SDS011;57876;47.792;12.960;2024-02-23T10:10:08;2.42;;;0.40;;
70433;SDS011;57876;47.792;12.960;2024-02-23T10:12:34;2.40;;;0.50;;
70433;SDS011;57876;47.792;12.960;2024-02-23T10:14:59;2.87;;;0.50;;
70433;SDS011;57876;47.792;12.960;2024-02-23T10:17:23;2.20;;;0.40;;
70433;SDS011;57876;47.792;12.960;2024-02-23T10:19:48;2.47;;;0.50;;
70433;SDS011;57876;47.792;12.960;2024-02-23T10:22:13;2.97;;;0.63;;
70433;SDS011;57876;47.792;12.960;2024-02-23T10:24:38;2.45;;;0.50;;
70433;SDS011;57876;47.792;12.960;2024-02-23T10:27:06;3.08;;;0.63;;
70433;SDS011;57876;47.792;12.960;2024-02-23T10:29:30;1.53;;;0.37;;
70433;SDS011;57876;47.792;12.960;2024-02-23T10:31:56;2.97;;;0.63;;
70433;SDS011;57876;47.792;12.960;2024-02-23T10:34:22;2.47;;;0.50;;
70433;SDS011;57876;47.792;12.960;2024-02-23T10:36:48;2.67;;;0.50;;
70433;SDS011;57876;47.792;12.960;2024-02-23T10:39:17;2.15;;;0.50;;
70433;SDS011;57876;47.792;12.960;2024-02-23T10:41:51;2.83;;;0.60;;
70433;SDS011;57876;47.792;12.960;2024-02-23T10:44:26;2.97;;;0.55;;
70433;SDS011;57876;47.792;12.960;2024-02-23T10:46:52;2.92;;;0.55;;
70433;SDS011;57876;47.792;12.960;2024-02-23T10:49:18;2.17;;;0.50;;
70433;SDS011;57876;47.792;12.960;2024-02-23T10:51:47;2.72;;;0.50;;
70433;SDS011;57876;47.792;12.960;2024-02-23T10:54:13;2.60;;;0.50;;
70433;SDS011;57876;47.792;12.960;2024-02-23T10:56:41;3.13;;;0.60;;
70433;SDS011;57876;47.792;12.960;2024-02-23T10:59:06;3.17;;;0.60;;
70433;SDS011;57876;47.792;12.960;2024-02-23T11:01:32;3.07;;;0.50;;
70433;SDS011;57876;47.792;12.960;2024-02-23T11:03:58;2.28;;;0.45;;
70433;SDS011;57876;47.792;12.960;2024-02-23T11:06:27;2.67;;;0.50;;
70433;SDS011;57876;47.792;12.960;2024-02-23T11:08:52;2.50;;;0.45;;
70433;SDS011;57876;47.792;12.960;2024-02-23T11:11:16;2.47;;;0.40;;
70433;SDS011;57876;47.792;12.960;2024-02-23T11:13:44;3.15;;;0.60;;
70433;SDS011;57876;47.792;12.960;2024-02-23T11:16:09;2.25;;;0.50;;
70433;SDS011;57876;47.792;12.960;2024-02-23T11:18:34;3.42;;;0.55;;
70433;SDS011;57876;47.792;12.960;2024-02-23T11:21:00;2.70;;;0.50;;
70433;SDS011;57876;47.792;12.960;2024-02-23T11:23:26;2.42;;;0.50;;
70433;SDS011;57876;47.792;12.960;2024-02-23T11:28:26;2.67;;;0.43;;
70433;SDS011;57876;47.792;12.960;2024-02-23T11:30:51;2.47;;;0.40;;
70433;SDS011;57876;47.792;12.960;2024-02-23T11:33:16;2.47;;;0.50;;
70433;SDS011;57876;47.792;12.960;2024-02-23T11:35:50;2.75;;;0.50;;
70433;SDS011;57876;47.792;12.960;2024-02-23T11:38:15;2.30;;;0.50;;
70433;SDS011;57876;47.792;12.960;2024-02-23T11:40:40;2.55;;;0.50;;
70433;SDS011;57876;47.792;12.960;2024-02-23T11:43:05;2.93;;;0.60;;
70433;SDS011;57876;47.792;12.960;2024-02-23T11:45:31;2.88;;;0.50;;
70433;SDS011;57876;47.792;12.960;2024-02-23T11:47:55;2.47;;;0.50;;
70433;SDS011;57876;47.792;12.960;2024-02-23T11:50:19;2.03;;;0.40;;
70433;SDS011;57876;47.792;12.960;2024-02-23T11:52:44;2.80;;;0.50;;
70433;SDS011;57876;47.792;12.960;2024-02-23T11:55:09;2.80;;;0.47;;
70433;SDS011;57876;47.792;12.960;2024-02-23T11:57:34;2.93;;;0.60;;
70433;SDS011;57876;47.792;12.960;2024-02-23T12:00:00;1.85;;;0.40;;
70433;SDS011;57876;47.792;12.960;2024-02-23T12:02:25;2.40;;;0.50;;
70433;SDS011;57876;47.792;12.960;2024-02-23T12:04:50;2.03;;;0.37;;
70433;SDS011;57876;47.792;12.960;2024-02-23T12:07:14;2.13;;;0.47;;
70433;SDS011;57876;47.792;12.960;2024-02-23T12:09:40;3.42;;;0.50;;
70433;SDS011;57876;47.792;12.960;2024-02-23T12:12:05;1.95;;;0.40;;
70433;SDS011;57876;47.792;12.960;2024-02-23T12:14:30;3.25;;;0.80;;
70433;SDS011;57876;47.792;12.960;2024-02-23T12:16:54;2.80;;;0.60;;
70433;SDS011;57876;47.792;12.960;2024-02-23T12:19:22;2.88;;;0.70;;
70433;SDS011;57876;47.792;12.960;2024-02-23T12:21:47;2.53;;;0.40;;
70433;SDS011;57876;47.792;12.960;2024-02-23T12:24:12;2.72;;;0.50;;
70433;SDS011;57876;47.792;12.960;2024-02-23T12:26:36;2.47;;;0.50;;
70433;SDS011;57876;47.792;12.960;2024-02-23T12:29:01;3.27;;;0.70;;
70433;SDS011;57876;47.792;12.960;2024-02-23T12:31:35;3.03;;;0.50;;
70433;SDS011;57876;47.792;12.960;2024-02-23T12:34:00;4.43;;;0.63;;
70433;SDS011;57876;47.792;12.960;2024-02-23T12:36:24;3.50;;;0.60;;
70433;SDS011;57876;47.792;12.960;2024-02-23T12:38:49;3.30;;;0.70;;
70433;SDS011;57876;47.792;12.960;2024-02-23T12:41:13;3.10;;;0.60;;
70433;SDS011;57876;47.792;12.960;2024-02-23T12:43:38;3.17;;;0.60;;
70433;SDS011;57876;47.792;12.960;2024-02-23T12:46:02;3.63;;;0.90;;
70433;SDS011;57876;47.792;12.960;2024-02-23T12:48:27;3.40;;;0.70;;
70433;SDS011;57876;47.792;12.960;2024-02-23T12:50:52;3.57;;;0.70;;
70433;SDS011;57876;47.792;12.960;2024-02-23T12:53:34;3.95;;;0.75;;
70433;SDS011;57876;47.792;12.960;2024-02-23T12:56:03;4.30;;;0.90;;
70433;SDS011;57876;47.792;12.960;2024-02-23T12:58:28;4.53;;;0.95;;
70433;SDS011;57876;47.792;12.960;2024-02-23T13:00:53;4.75;;;1.00;;
70433;SDS011;57876;47.792;12.960;2024-02-23T13:03:18;4.77;;;0.90;;
70433;SDS011;57876;47.792;12.960;2024-02-23T13:05:42;4.33;;;1.10;;
70433;SDS011;57876;47.792;12.960;2024-02-23T13:08:07;8.37;;;1.20;;
70433;SDS011;57876;47.792;12.960;2024-02-23T13:10:31;7.13;;;1.90;;
70433;SDS011;57876;47.792;12.960;2024-02-23T13:12:55;7.72;;;2.08;;
70433;SDS011;57876;47.792;12.960;2024-02-23T13:15:20;7.47;;;2.17;;
70433;SDS011;57876;47.792;12.960;2024-02-23T13:17:44;12.37;;;2.70;;
70433;SDS011;57876;47.792;12.960;2024-02-23T13:20:09;9.43;;;2.40;;
70433;SDS011;57876;47.792;12.960;2024-02-23T13:22:36;9.43;;;2.90;;
70433;SDS011;57876;47.792;12.960;2024-02-23T13:25:01;8.90;;;2.50;;
70433;SDS011;57876;47.792;12.960;2024-02-23T13:27:25;10.48;;;2.55;;
70433;SDS011;57876;47.792;12.960;2024-02-23T13:29:50;9.03;;;2.90;;
70433;SDS011;57876;47.792;12.960;2024-02-23T13:32:14;8.47;;;2.30;;
70433;SDS011;57876;47.792;12.960;2024-02-23T13:34:41;10.68;;;2.63;;
70433;SDS011;57876;47.792;12.960;2024-02-23T13:37:06;8.43;;;2.40;;
70433;SDS011;57876;47.792;12.960;2024-02-23T13:39:30;7.47;;;2.27;;
70433;SDS011;57876;47.792;12.960;2024-02-23T13:41:54;6.53;;;2.03;;
70433;SDS011;57876;47.792;12.960;2024-02-23T13:44:21;7.67;;;2.43;;
70433;SDS011;57876;47.792;12.960;2024-02-23T13:46:45;9.18;;;2.33;;
70433;SDS011;57876;47.792;12.960;2024-02-23T13:49:10;8.57;;;2.53;;
70433;SDS011;57876;47.792;12.960;2024-02-23T13:51:36;9.30;;;2.40;;
70433;SDS011;57876;47.792;12.960;2024-02-23T13:54:01;8.03;;;2.10;;
70433;SDS011;57876;47.792;12.960;2024-02-23T13:56:27;8.52;;;2.25;;
70433;SDS011;57876;47.792;12.960;2024-02-23T13:58:51;9.23;;;2.40;;
70433;SDS011;57876;47.792;12.960;2024-02-23T14:01:15;6.97;;;2.20;;
70433;SDS011;57876;47.792;12.960;2024-02-23T14:03:40;6.63;;;2.03;;
70433;SDS011;57876;47.792;12.960;2024-02-23T14:06:04;7.77;;;1.97;;
70433;SDS011;57876;47.792;12.960;2024-02-23T14:08:29;7.97;;;2.17;;
70433;SDS011;57876;47.792;12.960;2024-02-23T14:11:01;9.20;;;2.50;;
70433;SDS011;57876;47.792;12.960;2024-02-23T14:13:26;7.55;;;2.05;;
70433;SDS011;57876;47.792;12.960;2024-02-23T14:15:50;10.27;;;1.90;;
70433;SDS011;57876;47.792;12.960;2024-02-23T14:18:15;8.60;;;2.30;;
70433;SDS011;57876;47.792;12.960;2024-02-23T14:20:39;7.63;;;2.13;;
70433;SDS011;57876;47.792;12.960;2024-02-23T14:23:04;7.78;;;2.20;;